Time;durP1;ratioP1;P1;durP2;ratioP2;P2;SDS_P1;SDS_P2;PMS_P1;PMS_P2;Temp;Humidity;BMP_temperature;BMP_pressure;BME280_temperature;BME280_humidity;BME280_pressure;Samples;Min_cycle;Max_cycle;Signal;HPM_P1;HPM_P2
2024/03/09 00:00:27;;;;;;;0.30;0.20;;;;;;;7.22;75.22;99242.06;5092415;28;20445;-51
2024/03/09 00:02:55;;;;;;;0.30;0.20;;;;;;;7.12;76.45;99238.84;5078653;28;20453;-51
2024/03/09 00:05:26;;;;;;;0.30;0.20;;;;;;;6.81;77.69;99229.22;5092255;28;20921;-51
2024/03/09 00:07:55;;;;;;;0.30;0.20;;;;;;;6.67;76.55;99235.84;5092371;28;20460;-51
2024/03/09 00:10:23;;;;;;;0.30;0.20;;;;;;;6.71;77.27;99238.34;5092329;28;20489;-51
2024/03/09 00:12:49;;;;;;;0.30;0.20;;;;;;;6.92;77.04;99252.69;5092764;28;20449;-51
2024/03/09 00:15:17;;;;;;;0.30;0.10;;;;;;;7.08;76.89;99255.72;5085314;28;20830;-51
2024/03/09 00:17:46;;;;;;;0.30;0.20;;;;;;;6.96;77.48;99272.81;5092187;28;20498;-51
2024/03/09 00:20:21;;;;;;;0.30;0.10;;;;;;;6.88;77.13;99268.69;5091892;28;20453;-52
2024/03/09 00:22:48;;;;;;;0.30;0.20;;;;;;;6.90;77.47;99265.09;5092349;28;20440;-52
2024/03/09 00:25:15;;;;;;;0.30;0.20;;;;;;;6.84;77.50;99268.75;5086859;28;20942;-51
2024/03/09 00:27:42;;;;;;;0.30;0.20;;;;;;;6.77;77.49;99261.94;5072137;28;20981;-51
2024/03/09 00:30:17;;;;;;;0.30;0.10;;;;;;;6.76;76.37;99264.63;5086454;28;20487;-51
2024/03/09 00:32:53;;;;;;;0.30;0.20;;;;;;;6.54;77.33;99259.09;5092867;28;20570;-51
2024/03/09 00:35:22;;;;;;;0.33;0.27;;;;;;;6.39;78.15;99268.31;5072735;28;20511;-51
2024/03/09 00:37:48;;;;;;;0.30;0.20;;;;;;;6.75;77.62;99273.47;5093031;28;20548;-51
2024/03/09 00:40:15;;;;;;;0.30;0.10;;;;;;;6.76;76.97;99265.50;5066473;28;20451;-51
2024/03/09 00:42:41;;;;;;;0.30;0.20;;;;;;;6.78;76.99;99268.94;5065746;28;20452;-51
2024/03/09 00:45:09;;;;;;;36.43;8.63;;;;;;;6.85;76.56;99264.34;5092655;28;20535;-52
2024/03/09 00:47:37;;;;;;;0.30;0.20;;;;;;;6.83;76.89;99264.38;5089748;28;20879;-52
2024/03/09 00:50:07;;;;;;;0.33;0.20;;;;;;;6.92;77.24;99259.75;5095597;28;20493;-52
2024/03/09 00:52:35;;;;;;;0.30;0.17;;;;;;;6.81;77.46;99254.78;5095653;28;20450;-52
2024/03/09 00:55:04;;;;;;;0.30;0.20;;;;;;;6.79;77.31;99257.47;5091765;28;20448;-52
2024/03/09 00:57:33;;;;;;;0.30;0.20;;;;;;;6.65;77.53;99246.47;5076864;28;21033;-51
2024/03/09 01:00:00;;;;;;;0.30;0.20;;;;;;;6.60;78.48;99252.78;5095541;28;20444;-51
2024/03/09 01:02:27;;;;;;;0.30;0.10;;;;;;;6.64;78.29;99250.00;5095318;28;21033;-51
2024/03/09 01:04:53;;;;;;;0.30;0.20;;;;;;;6.60;78.66;99255.44;5095640;28;20445;-51
2024/03/09 01:07:22;;;;;;;0.30;0.20;;;;;;;6.57;78.65;99237.88;5095214;28;20475;-51
2024/03/09 01:09:49;;;;;;;0.30;0.10;;;;;;;6.48;78.71;99239.03;5090373;28;20535;-51
2024/03/09 01:12:19;;;;;;;0.30;0.10;;;;;;;6.26;79.75;99244.97;5088098;28;20448;-52
2024/03/09 01:14:48;;;;;;;0.30;0.20;;;;;;;6.32;79.89;99236.88;5095618;28;20499;-51
2024/03/09 01:17:21;;;;;;;0.30;0.20;;;;;;;6.40;80.24;99233.09;5092906;28;20515;-51
2024/03/09 01:19:48;;;;;;;0.30;0.20;;;;;;;6.50;79.88;99229.28;5095619;28;20437;-51
2024/03/09 01:22:14;;;;;;;0.30;0.20;;;;;;;6.41;79.81;99228.69;5094977;28;20487;-52
2024/03/09 01:24:41;;;;;;;0.67;0.67;;;;;;;6.44;80.28;99225.94;5095168;28;20481;-51
2024/03/09 01:27:08;;;;;;;0.30;0.20;;;;;;;6.34;81.03;99221.88;5067703;28;21066;-51
2024/03/09 01:29:35;;;;;;;0.30;0.20;;;;;;;6.13;81.06;99232.09;5091074;28;21056;-51
2024/03/09 01:32:03;;;;;;;0.30;0.20;;;;;;;6.29;81.61;99221.13;5094961;28;20518;-51
2024/03/09 01:34:30;;;;;;;0.30;0.10;;;;;;;6.42;81.72;99225.13;5094991;28;20938;-52
2024/03/09 01:36:57;;;;;;;0.30;0.20;;;;;;;6.21;81.50;99219.56;5094759;28;20465;-52
2024/03/09 01:39:24;;;;;;;0.30;0.20;;;;;;;6.29;81.75;99219.34;5076154;28;20885;-52
2024/03/09 01:41:52;;;;;;;0.30;0.20;;;;;;;6.54;80.49;99222.13;5069479;28;20526;-52
2024/03/09 01:44:18;;;;;;;0.30;0.20;;;;;;;6.48;79.83;99212.63;5074213;28;20456;-51
2024/03/09 01:46:46;;;;;;;0.30;0.20;;;;;;;6.41;80.58;99213.72;5094532;28;20480;-51
2024/03/09 01:49:12;;;;;;;0.30;0.20;;;;;;;6.44;80.53;99211.00;5094513;28;20476;-51
2024/03/09 01:51:40;;;;;;;0.30;0.17;;;;;;;6.36;80.78;99196.28;5094605;28;20456;-51
2024/03/09 01:54:10;;;;;;;0.30;0.20;;;;;;;6.38;81.28;99195.34;5094381;28;20534;-51
2024/03/09 01:56:38;;;;;;;0.30;0.20;;;;;;;6.31;81.41;99195.56;5083088;28;20453;-51
2024/03/09 01:59:07;;;;;;;0.30;0.20;;;;;;;6.40;81.47;99188.22;5094216;28;20453;-51
2024/03/09 02:01:36;;;;;;;0.30;0.20;;;;;;;6.38;81.84;99183.91;5095184;28;20510;-51
2024/03/09 02:04:04;;;;;;;0.30;0.20;;;;;;;6.38;81.83;99183.91;5094209;28;20445;-51
2024/03/09 02:06:32;;;;;;;0.30;0.10;;;;;;;6.51;81.92;99182.63;5094353;28;20870;-52
2024/03/09 02:08:59;;;;;;;0.30;0.20;;;;;;;6.47;81.13;99173.97;5093737;28;20472;-52
2024/03/09 02:11:29;;;;;;;0.27;0.13;;;;;;;6.45;81.64;99175.78;5084202;28;20450;-51
2024/03/09 02:13:59;;;;;;;0.30;0.20;;;;;;;6.42;81.16;99170.56;5091193;28;20445;-51
2024/03/09 02:16:25;;;;;;;0.30;0.10;;;;;;;6.50;79.95;99173.00;5094313;28;20452;-51
2024/03/09 02:18:52;;;;;;;0.30;0.10;;;;;;;6.43;80.92;99176.72;5093961;28;20876;-51
2024/03/09 02:21:18;;;;;;;0.30;0.20;;;;;;;6.52;80.05;99169.38;5094494;28;20947;-51
2024/03/09 02:23:47;;;;;;;0.30;0.20;;;;;;;6.59;78.91;99166.59;5094149;28;20459;-51
2024/03/09 02:26:17;;;;;;;0.30;0.20;;;;;;;6.46;79.91;99176.66;5073301;28;20459;-51
2024/03/09 02:28:53;;;;;;;0.30;0.20;;;;;;;6.62;79.06;99166.47;5091138;28;20551;-51
2024/03/09 02:31:23;;;;;;;0.30;0.20;;;;;;;6.56;79.51;99164.00;5094090;28;20972;-51
2024/03/09 02:33:52;;;;;;;0.30;0.20;;;;;;;6.44;78.87;99168.78;5093704;28;20445;-51
2024/03/09 02:36:26;;;;;;;0.30;0.17;;;;;;;6.43;79.25;99171.44;5083467;28;20482;-50
2024/03/09 02:38:52;;;;;;;0.30;0.20;;;;;;;6.46;79.47;99160.81;5091251;28;20471;-51
2024/03/09 02:41:19;;;;;;;0.30;0.20;;;;;;;6.07;80.29;99160.19;5056138;28;20529;-51
2024/03/09 02:43:49;;;;;;;0.30;0.10;;;;;;;6.24;80.10;99161.44;5083619;28;20455;-51
2024/03/09 02:46:16;;;;;;;0.30;0.10;;;;;;;6.26;81.01;99160.53;5094453;28;20452;-51
2024/03/09 02:48:43;;;;;;;0.30;0.20;;;;;;;6.14;80.17;99167.88;5094645;28;20469;-51
2024/03/09 02:51:12;;;;;;;0.30;0.10;;;;;;;6.01;81.20;99157.72;5087968;28;20575;-50
2024/03/09 02:53:42;;;;;;;0.30;0.10;;;;;;;6.03;81.39;99162.06;5094771;28;20547;-50
2024/03/09 02:56:10;;;;;;;0.30;0.10;;;;;;;5.93;82.05;99153.53;5082703;28;20543;-50
2024/03/09 02:58:37;;;;;;;0.30;0.20;;;;;;;5.86;82.27;99149.28;5093278;28;20472;-50
2024/03/09 03:01:07;;;;;;;0.30;0.17;;;;;;;5.83;82.60;99138.84;5093638;28;20479;-50
2024/03/09 03:03:49;;;;;;;0.30;0.10;;;;;;;6.00;82.12;99143.66;5070036;28;20454;-50
2024/03/09 03:06:20;;;;;;;0.30;0.20;;;;;;;6.07;82.06;99150.50;5068225;28;20492;-51
2024/03/09 03:08:53;;;;;;;0.30;0.20;;;;;;;5.89;82.32;99149.25;5093114;28;20468;-51
2024/03/09 03:11:21;;;;;;;0.30;0.20;;;;;;;5.91;82.23;99147.44;5093609;28;20488;-50
2024/03/09 03:13:49;;;;;;;0.30;0.10;;;;;;;6.06;82.16;99130.31;5066583;28;21039;-50
2024/03/09 03:16:29;;;;;;;0.30;0.20;;;;;;;5.78;82.62;99122.31;5093627;28;20449;-50
2024/03/09 03:18:57;;;;;;;0.30;0.20;;;;;;;5.74;83.88;99125.03;5079373;28;21019;-50
2024/03/09 03:21:24;;;;;;;0.30;0.13;;;;;;;5.73;83.96;99107.50;5093706;28;20468;-51
2024/03/09 03:23:51;;;;;;;0.30;0.17;;;;;;;5.91;83.25;99109.66;5093258;28;20549;-51
2024/03/09 03:26:19;;;;;;;0.40;0.20;;;;;;;5.92;83.84;99109.63;5070881;28;21018;-50
2024/03/09 03:28:50;;;;;;;0.30;0.20;;;;;;;5.90;82.96;99111.44;5090163;28;20476;-51
2024/03/09 03:31:19;;;;;;;0.30;0.20;;;;;;;5.65;83.82;99113.88;5093246;28;20484;-50
2024/03/09 03:33:49;;;;;;;0.30;0.20;;;;;;;5.52;85.18;99111.63;5071778;28;20893;-51
2024/03/09 03:36:18;;;;;;;0.30;0.10;;;;;;;5.64;84.67;99119.19;5093046;28;21025;-51
2024/03/09 03:38:49;;;;;;;0.30;0.10;;;;;;;5.61;84.42;99121.88;5084675;28;20475;-51
2024/03/09 03:41:18;;;;;;;0.30;0.10;;;;;;;5.53;84.60;99119.47;5054738;28;20526;-50
2024/03/09 03:43:45;;;;;;;0.30;0.20;;;;;;;5.52;84.80;99123.00;5082235;28;20445;-51
2024/03/09 03:46:13;;;;;;;0.30;0.10;;;;;;;5.51;85.00;99117.78;5092535;28;20480;-50
2024/03/09 03:48:40;;;;;;;0.30;0.10;;;;;;;5.57;84.93;99112.34;5092557;28;20521;-51
2024/03/09 03:51:07;;;;;;;0.30;0.20;;;;;;;5.49;85.04;99127.50;5092236;28;20560;-51
2024/03/09 03:53:33;;;;;;;0.30;0.13;;;;;;;5.41;85.13;99130.34;5071462;28;20478;-50
2024/03/09 03:56:01;;;;;;;0.30;0.20;;;;;;;5.34;85.48;99119.09;5068853;28;20496;-51
2024/03/09 03:58:28;;;;;;;0.30;0.10;;;;;;;5.35;86.48;99130.50;5070621;28;20477;-48
2024/03/09 04:00:55;;;;;;;0.30;0.10;;;;;;;5.35;85.91;99133.16;5081649;28;20449;-48
2024/03/09 04:03:22;;;;;;;0.30;0.20;;;;;;;5.36;85.69;99126.97;5072624;28;20453;-48
2024/03/09 04:05:49;;;;;;;0.30;0.10;;;;;;;5.41;85.53;99127.69;5088070;28;20507;-48
2024/03/09 04:08:16;;;;;;;0.30;0.10;;;;;;;5.27;85.88;99114.03;5093312;28;20465;-48
2024/03/09 04:10:43;;;;;;;0.30;0.10;;;;;;;5.26;85.83;99113.16;5092816;28;20496;-47
2024/03/09 04:13:11;;;;;;;0.30;0.30;;;;;;;5.17;86.07;99123.94;5093036;28;20445;-48
2024/03/09 04:15:39;;;;;;;0.30;0.20;;;;;;;5.25;86.59;99113.22;5081657;28;20456;-48
2024/03/09 04:18:05;;;;;;;0.30;0.10;;;;;;;5.25;86.58;99110.56;5092644;28;20841;-49
2024/03/09 04:20:35;;;;;;;0.30;0.17;;;;;;;5.27;85.75;99111.41;5096151;28;20471;-48
2024/03/09 04:23:07;;;;;;;0.30;0.10;;;;;;;5.27;86.52;99111.41;5097281;28;20527;-48
2024/03/09 04:25:35;;;;;;;0.30;0.10;;;;;;;5.14;86.19;99109.97;5087363;28;20450;-48
2024/03/09 04:28:03;;;;;;;0.30;0.10;;;;;;;5.11;86.34;99105.66;5079449;28;20477;-48
2024/03/09 04:30:33;;;;;;;0.30;0.17;;;;;;;5.10;86.58;99095.16;5097225;28;20522;-48
2024/03/09 04:33:02;;;;;;;0.87;0.87;;;;;;;5.11;86.60;99096.91;5097691;28;20460;-48
2024/03/09 04:35:29;;;;;;;0.30;0.20;;;;;;;5.18;86.73;99093.19;5097353;28;20445;-48
2024/03/09 04:37:55;;;;;;;0.30;0.10;;;;;;;5.09;86.88;99089.03;5097244;28;20500;-48
2024/03/09 04:40:22;;;;;;;0.30;0.20;;;;;;;5.08;86.33;99091.72;5079607;28;20445;-48
2024/03/09 04:42:49;;;;;;;0.30;0.10;;;;;;;5.17;86.04;99091.47;5069387;28;20461;-48
2024/03/09 04:45:22;;;;;;;0.40;0.20;;;;;;;5.11;86.59;99099.53;5096508;28;20968;-48
2024/03/09 04:47:49;;;;;;;0.30;0.10;;;;;;;5.11;85.99;99102.16;5096906;28;20461;-48
2024/03/09 04:50:19;;;;;;;0.30;0.20;;;;;;;5.01;87.06;99096.25;5096708;28;20484;-48
2024/03/09 04:52:47;;;;;;;0.30;0.10;;;;;;;5.03;87.17;99094.44;5096480;28;20448;-48
2024/03/09 04:55:17;;;;;;;0.30;0.20;;;;;;;5.05;86.60;99109.28;5091304;28;20449;-48
2024/03/09 04:57:44;;;;;;;0.20;0.10;;;;;;;4.96;87.07;99112.19;5089820;28;20484;-48
2024/03/09 05:00:16;;;;;;;0.30;0.20;;;;;;;5.05;86.60;99109.28;5096492;28;20588;-48
2024/03/09 05:02:47;;;;;;;0.30;0.10;;;;;;;5.10;86.43;99106.56;5095838;28;20447;-48
2024/03/09 05:05:17;;;;;;;0.30;0.20;;;;;;;5.10;86.88;99111.84;5085964;28;20482;-48
2024/03/09 05:07:46;;;;;;;0.20;0.10;;;;;;;4.91;86.49;99100.88;5089803;28;20973;-48
2024/03/09 05:10:17;;;;;;;0.30;0.20;;;;;;;4.77;87.79;99100.34;5074272;28;20576;-48
2024/03/09 05:12:55;;;;;;;0.30;0.20;;;;;;;4.81;87.71;99101.16;5079878;28;20456;-48
2024/03/09 05:15:29;;;;;;;0.30;0.10;;;;;;;5.00;87.19;99102.44;5095740;28;20447;-48
2024/03/09 05:18:00;;;;;;;0.30;0.13;;;;;;;4.83;88.11;99094.97;5096932;28;20567;-48
2024/03/09 05:20:28;;;;;;;0.30;0.10;;;;;;;4.87;87.28;99099.25;5092249;28;20449;-48
2024/03/09 05:22:57;;;;;;;0.30;0.20;;;;;;;4.83;86.85;99097.59;5076148;28;20472;-48
2024/03/09 05:25:23;;;;;;;0.30;0.10;;;;;;;4.85;87.52;99093.16;5072864;28;20458;-48
2024/03/09 05:27:52;;;;;;;0.27;0.20;;;;;;;4.87;86.58;99087.84;5077972;28;20480;-48
2024/03/09 05:30:25;;;;;;;0.20;0.10;;;;;;;4.78;87.15;99086.28;5098914;28;20533;-48
2024/03/09 05:32:57;;;;;;;0.30;0.10;;;;;;;4.70;87.44;99075.97;5094815;28;20448;-47
2024/03/09 05:35:28;;;;;;;0.30;0.10;;;;;;;4.77;88.47;99068.78;5086951;28;20457;-48
2024/03/09 05:37:58;;;;;;;0.20;0.10;;;;;;;5.09;86.14;99075.00;5083571;28;20530;-48
2024/03/09 05:40:27;;;;;;;0.20;0.10;;;;;;;5.24;85.40;99077.22;5086071;28;20518;-49
2024/03/09 05:42:55;;;;;;;0.20;0.10;;;;;;;5.01;87.20;99070.78;5084014;28;20457;-47
2024/03/09 05:45:22;;;;;;;0.30;0.10;;;;;;;5.04;85.97;99073.34;5090715;28;20449;-48
2024/03/09 05:47:52;;;;;;;0.30;0.20;;;;;;;5.12;85.51;99072.28;5095489;28;20955;-48
2024/03/09 05:50:21;;;;;;;0.20;0.10;;;;;;;5.03;85.37;99073.38;5083966;28;20547;-47
2024/03/09 05:52:49;;;;;;;0.20;0.10;;;;;;;5.01;85.37;99069.94;5086146;28;20945;-48
2024/03/09 05:55:16;;;;;;;0.30;0.10;;;;;;;5.06;85.40;99078.56;5091940;28;20441;-47
2024/03/09 05:57:44;;;;;;;0.30;0.10;;;;;;;5.08;85.12;99071.50;5097002;28;20472;-47
2024/03/09 06:00:16;;;;;;;0.30;0.20;;;;;;;5.18;85.23;99075.59;5095651;28;20472;-47
2024/03/09 06:02:44;;;;;;;0.23;0.20;;;;;;;5.16;85.33;99079.19;5092334;28;20948;-47
2024/03/09 06:05:14;;;;;;;0.30;0.10;;;;;;;5.08;85.64;99066.25;5076460;28;20462;-48
2024/03/09 06:07:44;;;;;;;0.30;0.10;;;;;;;5.16;85.56;99064.25;5080694;28;20497;-47
2024/03/09 06:10:14;;;;;;;9.90;9.03;;;;;;;5.10;85.41;99067.06;5073100;28;20487;-47
2024/03/09 06:12:44;;;;;;;0.30;0.17;;;;;;;4.99;86.39;99066.47;5076271;28;20987;-47
2024/03/09 06:15:18;;;;;;;0.30;0.10;;;;;;;4.92;86.89;99068.38;5073566;28;20545;-47
2024/03/09 06:17:52;;;;;;;0.30;0.10;;;;;;;4.80;87.51;99068.72;5085971;28;20473;-46
2024/03/09 06:20:19;;;;;;;0.30;0.10;;;;;;;4.67;88.43;99068.16;5083554;28;20540;-47
2024/03/09 06:22:46;;;;;;;0.30;0.20;;;;;;;4.59;88.65;99061.34;5080745;28;20449;-47
2024/03/09 06:25:23;;;;;;;0.27;0.10;;;;;;;4.80;88.42;99070.47;5065572;28;20824;-47
2024/03/09 06:28:03;;;;;;;1.40;1.40;;;;;;;4.83;88.45;99084.44;5080980;28;20473;-47
2024/03/09 06:30:29;;;;;;;0.20;0.20;;;;;;;4.99;87.35;99085.78;5064780;28;21050;-47
2024/03/09 06:32:59;;;;;;;0.30;0.10;;;;;;;5.21;86.67;99095.75;5067996;28;20452;-47
2024/03/09 06:35:29;;;;;;;0.20;0.10;;;;;;;5.39;85.82;99089.13;5074842;28;20441;-47
2024/03/09 06:38:04;;;;;;;0.30;0.10;;;;;;;5.47;85.29;99098.53;5094998;28;20555;-47
2024/03/09 06:40:34;;;;;;;0.30;0.20;;;;;;;5.54;84.92;99092.22;5069479;28;20433;-48
2024/03/09 06:43:03;;;;;;;0.20;0.10;;;;;;;5.47;84.65;99090.63;5076395;28;20449;-47
2024/03/09 06:45:29;;;;;;;0.30;0.10;;;;;;;5.65;83.49;99091.91;5080402;28;20456;-49
2024/03/09 06:47:59;;;;;;;0.30;0.10;;;;;;;5.77;84.02;99088.94;5080713;28;20468;-47
2024/03/09 06:50:31;;;;;;;0.30;0.10;;;;;;;5.70;84.38;99092.63;5094284;28;20512;-46
2024/03/09 06:53:01;;;;;;;0.30;0.20;;;;;;;5.75;84.72;99088.09;5093650;28;20449;-46
2024/03/09 06:55:29;;;;;;;3.17;2.93;;;;;;;5.72;83.70;99087.31;5090664;28;20810;-46
2024/03/09 06:58:00;;;;;;;0.30;0.10;;;;;;;5.77;83.83;99085.44;5095876;28;20955;-48
2024/03/09 07:00:31;;;;;;;0.30;0.10;;;;;;;5.85;83.94;99092.19;5081769;28;20445;-46
2024/03/09 07:03:01;;;;;;;0.30;0.20;;;;;;;5.78;83.54;99109.13;5078195;28;20476;-47
2024/03/09 07:05:35;;;;;;;0.30;0.10;;;;;;;5.96;84.25;99105.13;5070000;28;20930;-46
2024/03/09 07:08:04;;;;;;;0.30;0.20;;;;;;;5.88;84.23;99112.34;5070038;28;20516;-48
2024/03/09 07:10:32;;;;;;;0.30;0.20;;;;;;;5.87;83.13;99110.59;5066092;28;20452;-47
2024/03/09 07:12:59;;;;;;;0.30;0.20;;;;;;;5.98;83.65;99105.94;5058677;28;20458;-48
2024/03/09 07:15:28;;;;;;;0.30;0.13;;;;;;;5.89;83.23;99108.78;5062525;28;20458;-46
2024/03/09 07:17:55;;;;;;;0.30;0.10;;;;;;;5.99;83.18;99118.19;5050134;28;20557;-47
2024/03/09 07:20:27;;;;;;;0.30;0.20;;;;;;;6.15;83.15;99118.63;5043790;28;21029;-47
2024/03/09 07:22:54;;;;;;;0.30;0.20;;;;;;;6.27;81.25;99106.84;5037962;28;20466;-47
2024/03/09 07:25:23;;;;;;;0.30;0.10;;;;;;;6.26;80.66;99115.66;5047807;28;20487;-48
2024/03/09 07:27:52;;;;;;;0.30;0.10;;;;;;;6.08;80.53;99114.44;5045233;28;20500;-48
2024/03/09 07:30:19;;;;;;;0.30;0.20;;;;;;;5.98;80.60;99110.34;5065583;28;20996;-47
2024/03/09 07:32:49;;;;;;;0.30;0.20;;;;;;;6.24;80.03;99111.31;5049745;28;20545;-46
2024/03/09 07:35:18;;;;;;;0.27;0.10;;;;;;;6.24;79.18;99113.06;5053528;28;20449;-47
2024/03/09 07:37:58;;;;;;;0.30;0.10;;;;;;;6.29;79.83;99108.50;5046381;28;20479;-47
2024/03/09 07:40:36;;;;;;;0.30;0.20;;;;;;;6.32;79.24;99100.53;5044334;28;20455;-48
2024/03/09 07:43:05;;;;;;;0.30;0.13;;;;;;;6.08;80.13;99104.75;5053458;28;20794;-46
2024/03/09 07:45:32;;;;;;;0.30;0.20;;;;;;;6.24;79.91;99108.66;5058965;28;20526;-46
2024/03/09 07:48:03;;;;;;;0.30;0.10;;;;;;;6.33;79.72;99111.94;5052906;28;20889;-47
2024/03/09 07:50:32;;;;;;;0.30;0.20;;;;;;;6.40;79.71;99106.41;5031257;28;20819;-46
2024/03/09 07:52:59;;;;;;;0.30;0.20;;;;;;;6.45;79.22;99096.59;5047533;28;20964;-46
2024/03/09 07:55:26;;;;;;;0.30;0.10;;;;;;;6.13;80.21;99100.19;5046255;28;20452;-45
2024/03/09 07:57:55;;;;;;;0.20;0.10;;;;;;;6.21;80.68;99090.28;5067123;28;20480;-46
2024/03/09 08:00:44;;;;;;;0.30;0.20;;;;;;;6.31;80.67;99085.59;5069949;28;20450;-46
2024/03/09 08:03:12;;;;;;;0.20;0.10;;;;;;;6.29;80.13;99091.81;5070395;28;20525;-46
2024/03/09 08:05:38;;;;;;;0.40;0.40;;;;;;;6.22;80.49;99091.16;5045842;28;20487;-46
2024/03/09 08:08:09;;;;;;;0.30;0.20;;;;;;;6.26;80.53;99091.91;5070341;28;21053;-46
2024/03/09 08:10:41;;;;;;;0.30;0.20;;;;;;;6.35;80.66;99091.66;5056122;28;20486;-46
2024/03/09 08:13:10;;;;;;;0.20;0.10;;;;;;;6.38;79.45;99088.91;5071245;28;20485;-46
2024/03/09 08:15:36;;;;;;;0.30;0.10;;;;;;;6.46;78.75;99098.31;5060310;28;20512;-46
2024/03/09 08:18:07;;;;;;;0.30;0.20;;;;;;;6.68;78.73;99089.72;5058185;28;20505;-46
2024/03/09 08:20:34;;;;;;;0.30;0.20;;;;;;;6.79;77.91;99091.09;5058202;28;20869;-46
2024/03/09 08:23:03;;;;;;;0.30;0.17;;;;;;;6.82;77.91;99087.47;5058452;28;20889;-47
2024/03/09 08:25:30;;;;;;;0.30;0.10;;;;;;;6.95;76.88;99094.09;5049533;28;20527;-46
2024/03/09 08:27:58;;;;;;;0.20;0.10;;;;;;;7.11;77.43;99086.50;5041963;28;20987;-46
2024/03/09 08:30:26;;;;;;;0.30;0.10;;;;;;;7.28;76.55;99080.66;5035650;28;20515;-47
2024/03/09 08:32:58;;;;;;;0.30;0.20;;;;;;;7.08;76.92;99083.97;5063341;28;20461;-46
2024/03/09 08:35:33;;;;;;;0.30;0.20;;;;;;;7.40;76.51;99088.13;5062833;28;20470;-46
2024/03/09 08:37:59;;;;;;;0.30;0.20;;;;;;;7.38;76.43;99077.63;5060035;28;20450;-46
2024/03/09 08:40:26;;;;;;;0.30;0.20;;;;;;;7.55;76.18;99079.69;5058859;28;20855;-47
2024/03/09 08:42:54;;;;;;;0.30;0.10;;;;;;;7.69;75.36;99076.56;5055231;28;20471;-47
2024/03/09 08:45:22;;;;;;;0.30;0.20;;;;;;;7.66;75.66;99069.56;5073610;28;20478;-45
2024/03/09 08:47:53;;;;;;;0.30;0.20;;;;;;;7.75;74.46;99064.88;5074710;28;20466;-46
2024/03/09 08:50:21;;;;;;;0.30;0.20;;;;;;;7.64;75.53;99065.25;5055926;28;20452;-46
2024/03/09 08:52:49;;;;;;;0.30;0.20;;;;;;;7.97;74.84;99050.78;5042280;28;20546;-46
2024/03/09 08:55:16;;;;;;;0.30;0.20;;;;;;;8.03;74.45;99055.84;5055349;28;20445;-48
2024/03/09 08:57:45;;;;;;;0.30;0.10;;;;;;;7.92;73.97;99054.50;5067293;28;20467;-47
2024/03/09 09:00:12;;;;;;;0.30;0.20;;;;;;;7.99;73.94;99045.44;5058744;28;20446;-46
2024/03/09 09:02:40;;;;;;;0.30;0.20;;;;;;;8.05;74.69;99037.25;5048762;28;20454;-46
2024/03/09 09:05:11;;;;;;;0.30;0.20;;;;;;;7.94;75.49;99029.72;5049666;28;20487;-47
2024/03/09 09:07:42;;;;;;;0.30;0.20;;;;;;;7.91;73.85;99045.72;5054207;28;20467;-46
2024/03/09 09:10:14;;;;;;;0.30;0.20;;;;;;;8.09;73.44;99040.66;5055541;28;20825;-47
2024/03/09 09:12:42;;;;;;;0.30;0.20;;;;;;;8.09;75.03;99027.44;5055306;28;20455;-46
2024/03/09 09:15:13;;;;;;;0.30;0.20;;;;;;;8.49;73.94;99027.59;5055109;28;20534;-47
2024/03/09 09:17:42;;;;;;;0.30;0.20;;;;;;;8.38;73.21;99029.81;5054535;28;20844;-46
2024/03/09 09:20:12;;;;;;;0.30;0.20;;;;;;;8.12;72.88;99028.16;5043026;28;20457;-47
2024/03/09 09:22:49;;;;;;;0.30;0.20;;;;;;;8.58;72.05;99029.88;5030874;28;20510;-46
2024/03/09 09:25:23;;;;;;;0.30;0.20;;;;;;;8.46;72.29;99018.91;5020227;28;20487;-47
2024/03/09 09:27:56;;;;;;;0.30;0.17;;;;;;;8.39;72.28;99022.75;5040199;28;20988;-46
2024/03/09 09:30:23;;;;;;;0.30;0.20;;;;;;;8.53;72.62;99020.41;5055859;28;20843;-46
2024/03/09 09:32:50;;;;;;;0.30;0.20;;;;;;;8.27;72.25;99016.13;5042951;28;20448;-47
2024/03/09 09:35:20;;;;;;;0.30;0.20;;;;;;;8.38;71.85;99003.34;5055332;28;20455;-46
2024/03/09 09:37:47;;;;;;;0.30;0.10;;;;;;;8.47;71.74;98997.66;5048667;28;20577;-46
2024/03/09 09:40:13;;;;;;;0.30;0.20;;;;;;;8.68;71.63;98989.78;5032502;28;20513;-46
2024/03/09 09:42:42;;;;;;;0.30;0.10;;;;;;;8.42;71.57;99002.28;5024142;28;20449;-46
2024/03/09 09:45:19;;;;;;;0.30;0.20;;;;;;;8.67;71.12;99002.16;5042483;28;20569;-46
2024/03/09 09:47:47;;;;;;;0.30;0.20;;;;;;;8.63;70.32;99003.19;5054807;28;20549;-47
2024/03/09 09:50:21;;;;;;;0.40;0.30;;;;;;;9.06;70.35;98991.66;5055090;28;20474;-46
2024/03/09 09:52:49;;;;;;;0.30;0.20;;;;;;;9.13;70.52;98981.63;5034502;28;20455;-48
2024/03/09 09:55:19;;;;;;;0.30;0.20;;;;;;;9.46;69.04;98979.28;5038551;28;20451;-48
2024/03/09 09:57:46;;;;;;;0.30;0.20;;;;;;;9.27;68.64;98978.38;5047614;28;20968;-47
2024/03/09 10:00:14;;;;;;;0.30;0.20;;;;;;;9.47;68.83;98971.25;5045711;28;20456;-50
2024/03/09 10:02:41;;;;;;;0.40;0.30;;;;;;;9.40;68.33;98974.25;5038467;28;20824;-50
2024/03/09 10:05:15;;;;;;;0.30;0.20;;;;;;;9.12;68.54;98975.47;5047830;28;20530;-50
2024/03/09 10:08:01;;;;;;;0.30;0.20;;;;;;;9.63;68.22;98979.38;5030883;28;20561;-50
2024/03/09 10:10:32;;;;;;;0.30;0.20;;;;;;;9.70;67.46;98977.28;5053792;28;20443;-51
2024/03/09 10:13:06;;;;;;;0.30;0.20;;;;;;;9.99;66.84;98981.22;5053064;28;20462;-50
2024/03/09 10:15:35;;;;;;;0.30;0.20;;;;;;;9.83;66.82;98985.53;5053008;28;20906;-50
2024/03/09 10:18:05;;;;;;;0.30;0.20;;;;;;;9.67;67.36;98970.34;5054071;28;20490;-50
2024/03/09 10:20:35;;;;;;;0.30;0.20;;;;;;;10.03;66.52;98962.44;5053280;28;20458;-50
2024/03/09 10:23:04;;;;;;;0.30;0.20;;;;;;;10.03;66.65;98965.09;5052986;28;20454;-50
2024/03/09 10:25:35;;;;;;;0.30;0.20;;;;;;;9.70;67.44;98962.22;5048319;28;20553;-49
2024/03/09 10:28:04;;;;;;;0.30;0.20;;;;;;;10.01;67.76;98955.50;5047379;28;20467;-49
2024/03/09 10:30:30;;;;;;;0.30;0.20;;;;;;;9.96;65.64;98953.03;5053656;28;20488;-50
2024/03/09 10:33:00;;;;;;;0.30;0.20;;;;;;;10.43;64.78;98938.44;5052902;28;20541;-50
2024/03/09 10:35:27;;;;;;;0.30;0.20;;;;;;;10.29;65.96;98942.63;5052886;28;20446;-50
2024/03/09 10:37:57;;;;;;;0.30;0.20;;;;;;;10.07;65.99;98939.25;5053227;28;20475;-50
2024/03/09 10:40:26;;;;;;;0.40;0.20;;;;;;;10.27;66.44;98938.31;5039276;28;20444;-50
2024/03/09 10:42:54;;;;;;;0.30;0.20;;;;;;;10.39;66.12;98937.72;5028009;28;20455;-50
2024/03/09 10:45:22;;;;;;;0.30;0.20;;;;;;;10.34;65.60;98935.28;5041256;28;20487;-50
2024/03/09 10:47:53;;;;;;;0.30;0.20;;;;;;;10.43;65.92;98946.41;5052632;28;20511;-51
2024/03/09 10:50:25;;;;;;;0.30;0.20;;;;;;;10.29;65.94;98936.47;5053027;28;20458;-50
2024/03/09 10:52:57;;;;;;;0.30;0.20;;;;;;;10.47;65.45;98932.03;5052639;28;20537;-50
2024/03/09 10:55:34;;;;;;;0.30;0.20;;;;;;;10.58;65.68;98916.41;5044828;28;20473;-51
2024/03/09 10:58:05;;;;;;;0.30;0.20;;;;;;;10.61;64.90;98909.13;5051217;28;20974;-50
2024/03/09 11:00:33;;;;;;;0.30;0.20;;;;;;;10.71;64.65;98911.34;5052386;28;20526;-49
2024/03/09 11:03:08;;;;;;;0.30;0.20;;;;;;;10.90;64.60;98909.44;5052412;28;20458;-51
2024/03/09 11:05:37;;;;;;;0.30;0.20;;;;;;;11.14;63.99;98900.16;5051762;28;20540;-50
2024/03/09 11:08:09;;;;;;;0.30;0.20;;;;;;;11.20;63.52;98899.84;5048043;28;20541;-51
2024/03/09 11:10:41;;;;;;;0.30;0.20;;;;;;;11.10;62.87;98903.06;5051647;28;20489;-51
2024/03/09 11:13:09;;;;;;;0.30;0.20;;;;;;;11.32;63.12;98894.81;5051884;28;20529;-50
2024/03/09 11:15:37;;;;;;;0.30;0.20;;;;;;;11.19;62.62;98894.59;5051878;28;20465;-50
2024/03/09 11:18:07;;;;;;;1.13;1.13;;;;;;;11.29;63.03;98893.16;5051880;28;20471;-51
2024/03/09 11:20:36;;;;;;;0.30;0.20;;;;;;;11.09;63.41;98878.25;5051718;28;20446;-50
2024/03/09 11:23:02;;;;;;;0.40;0.20;;;;;;;11.26;63.31;98880.91;5051911;28;20541;-50
2024/03/09 11:25:45;;;;;;;0.30;0.20;;;;;;;11.36;62.98;98880.38;5042670;28;21036;-51
2024/03/09 11:28:12;;;;;;;0.30;0.20;;;;;;;11.65;61.94;98878.78;5040235;28;20463;-50
2024/03/09 11:31:07;;;;;;;0.30;0.20;;;;;;;11.61;61.15;98878.09;5051963;28;20450;-50
2024/03/09 11:33:34;;;;;;;0.30;0.20;;;;;;;11.69;61.05;98885.66;5051534;28;20447;-51
2024/03/09 11:36:01;;;;;;;0.30;0.20;;;;;;;12.13;60.46;98876.03;5051807;28;20447;-51
2024/03/09 11:38:27;;;;;;;0.30;0.20;;;;;;;11.77;60.41;98864.78;5051372;28;20567;-51
2024/03/09 11:40:54;;;;;;;0.30;0.20;;;;;;;11.76;60.32;98850.63;5033535;28;20448;-51
2024/03/09 11:43:20;;;;;;;0.30;0.20;;;;;;;11.80;61.78;98838.03;5041105;28;20449;-51
2024/03/09 11:45:47;;;;;;;0.30;0.20;;;;;;;11.66;62.35;98837.94;5024250;28;21001;-51
2024/03/09 11:48:14;;;;;;;0.30;0.20;;;;;;;11.68;62.00;98844.03;5050664;28;21000;-51
2024/03/09 11:50:40;;;;;;;0.30;0.20;;;;;;;11.75;61.31;98851.56;5052613;28;20951;-51